Time;durP1;ratioP1;P1;durP2;ratioP2;P2;SDS_P1;SDS_P2;PMS_P1;PMS_P2;Temp;Humidity;BMP_temperature;BMP_pressure;BME280_temperature;BME280_humidity;BME280_pressure;Samples;Min_cycle;Max_cycle;Signal;HPM_P1;HPM_P2
2023/04/24 00:00:23;;;;;;;3.42;0.93;;;;;;;11.31;100.00;99118.28;5067279;28;20041;-92
2023/04/24 00:02:51;;;;;;;1.42;0.80;;;;;;;11.85;100.00;99202.88;5070842;28;20041;-93
2023/04/24 00:05:40;;;;;;;1.05;0.70;;;;;;;11.57;100.00;99162.34;5076205;28;20041;-93
2023/04/24 00:08:12;;;;;;;2.75;1.10;;;;;;;11.86;100.00;99192.16;5076935;28;20057;-95
2023/04/24 00:10:41;;;;;;;0.75;0.75;;;;;;;11.87;100.00;99191.19;5067679;28;20044;-94
2023/04/24 00:13:22;;;;;;;3.28;0.90;;;;;;;11.91;100.00;99191.81;5068418;28;20139;-91
2023/04/24 00:15:53;;;;;;;1.90;1.08;;;;;;;11.47;100.00;99103.00;5081133;28;20071;-90
2023/04/24 00:18:28;;;;;;;3.97;0.90;;;;;;;11.44;100.00;99086.47;5077083;28;20109;-88
2023/04/24 00:21:14;;;;;;;1.05;0.70;;;;;;;11.79;100.00;99156.44;5088051;28;20032;-90
2023/04/24 00:23:44;;;;;;;1.75;0.90;;;;;;;11.61;100.00;99115.28;5082861;28;20059;-94
2023/04/24 00:26:13;;;;;;;3.53;1.23;;;;;;;11.96;100.00;99179.09;5048983;28;20114;-93
2023/04/24 00:28:42;;;;;;;2.97;1.05;;;;;;;11.33;100.00;99079.28;5073847;28;20045;-93
2023/04/24 00:31:11;;;;;;;1.65;1.13;;;;;;;11.45;100.00;99106.72;5077737;28;20044;-95
2023/04/24 00:33:42;;;;;;;2.83;1.20;;;;;;;11.81;100.00;99166.91;5075348;28;20044;-91
2023/04/24 00:36:12;;;;;;;2.15;1.05;;;;;;;11.52;100.00;99115.91;5083092;28;20109;-88
2023/04/24 00:38:39;;;;;;;1.80;1.10;;;;;;;11.81;100.00;99162.44;5089325;28;20040;-90
2023/04/24 00:41:09;;;;;;;2.37;1.10;;;;;;;11.92;100.00;99169.66;5085628;28;20044;-90
2023/04/24 00:43:39;;;;;;;2.50;1.20;;;;;;;11.92;100.00;99178.47;5081357;28;20040;-89
2023/04/24 00:46:07;;;;;;;2.67;1.48;;;;;;;11.88;100.00;99182.28;5081193;28;20041;-91
2023/04/24 00:48:48;;;;;;;3.97;1.30;;;;;;;11.78;100.00;99153.88;5079691;28;20057;-92
2023/04/24 00:51:17;;;;;;;2.22;1.20;;;;;;;11.85;100.00;99165.72;5076780;28;20098;-92
2023/04/24 00:53:49;;;;;;;3.13;1.17;;;;;;;11.76;100.00;99153.13;5059699;28;20071;-92
2023/04/24 00:56:33;;;;;;;5.00;1.30;;;;;;;11.76;100.00;99159.28;5045718;28;20098;-90
2023/04/24 00:58:59;;;;;;;2.30;1.17;;;;;;;11.50;100.00;99116.00;5079546;28;20104;-87
2023/04/24 01:01:27;;;;;;;2.13;1.13;;;;;;;11.78;100.00;99144.13;5077438;28;20092;-89
2023/04/24 01:03:58;;;;;;;2.55;1.27;;;;;;;11.87;100.00;99147.91;5066963;28;20131;-91
2023/04/24 01:06:33;;;;;;;2.30;1.17;;;;;;;11.68;100.00;99139.53;5073810;28;20045;-91
2023/04/24 01:09:05;;;;;;;4.40;1.13;;;;;;;11.44;100.00;99099.72;5073719;28;20048;-93
2023/04/24 01:11:32;;;;;;;3.67;1.30;;;;;;;11.15;100.00;99054.09;5082862;28;20102;-93
2023/04/24 01:14:02;;;;;;;3.17;1.10;;;;;;;11.66;100.00;99139.63;5081352;28;20109;-93
2023/04/24 01:16:28;;;;;;;2.15;1.02;;;;;;;11.73;100.00;99125.00;5112083;28;20063;-94
2023/04/24 01:18:56;;;;;;;1.75;1.33;;;;;;;11.80;100.00;99151.97;5115477;28;20067;-96
2023/04/24 01:21:38;;;;;;;2.20;1.00;;;;;;;11.35;100.00;99081.78;5100266;28;20028;-88
2023/04/24 01:24:07;;;;;;;2.42;0.90;;;;;;;11.61;100.00;99131.19;5080024;28;20063;-94
2023/04/24 01:26:39;;;;;;;2.88;1.02;;;;;;;11.21;100.00;99064.22;5096186;28;20032;-96
2023/04/24 01:29:07;;;;;;;2.20;1.10;;;;;;;11.28;100.00;99096.47;5095382;28;20043;-88
2023/04/24 01:31:35;;;;;;;2.92;1.00;;;;;;;11.41;100.00;99129.09;5063617;28;20099;-93
2023/04/24 01:34:03;;;;;;;3.80;1.10;;;;;;;10.88;100.00;99043.59;5073019;28;20068;-93
2023/04/24 01:36:39;;;;;;;1.85;0.90;;;;;;;11.11;100.00;99073.78;5103913;28;20127;-93
2023/04/24 01:39:10;;;;;;;2.78;1.13;;;;;;;11.13;100.00;99079.84;5082362;28;20461;-95
2023/04/24 01:41:40;;;;;;;1.92;1.02;;;;;;;11.12;100.00;99080.78;5098296;28;20043;-94
2023/04/24 01:44:07;;;;;;;2.75;1.20;;;;;;;11.27;100.00;99113.31;5088644;28;20044;-94
2023/04/24 01:46:36;;;;;;;1.23;0.90;;;;;;;11.48;100.00;99130.38;5082068;28;20052;-94
2023/04/24 01:49:03;;;;;;;1.20;1.00;;;;;;;11.49;100.00;99146.13;5078431;28;20054;-94
2023/04/24 01:51:31;;;;;;;2.65;0.88;;;;;;;11.48;100.00;99141.81;5114542;28;20066;-93
2023/04/24 01:53:58;;;;;;;3.10;1.00;;;;;;;11.13;100.00;99088.63;5096172;28;20043;-88
2023/04/24 01:56:29;;;;;;;2.55;0.90;;;;;;;11.17;100.00;99097.22;5112596;28;20483;-93
2023/04/24 01:58:59;;;;;;;2.95;1.00;;;;;;;11.24;100.00;99114.38;5077568;28;20048;-95
2023/04/24 02:01:27;;;;;;;2.50;1.13;;;;;;;11.28;100.00;99104.41;5103439;28;20509;-94
2023/04/24 02:04:02;;;;;;;3.60;1.10;;;;;;;10.89;100.00;99042.66;5079504;28;20127;-93
2023/04/24 02:06:30;;;;;;;1.40;0.90;;;;;;;11.14;100.00;99087.69;5070882;28;20113;-93
2023/04/24 02:08:59;;;;;;;4.97;1.33;;;;;;;11.36;100.00;99091.44;5088563;28;20125;-92
2023/04/24 02:11:31;;;;;;;3.53;1.27;;;;;;;11.53;100.00;99129.06;5099666;28;20153;-93
2023/04/24 02:14:01;;;;;;;5.75;1.60;;;;;;;11.27;100.00;99115.97;5100785;28;20041;-90
2023/04/24 02:16:32;;;;;;;2.65;1.42;;;;;;;11.40;100.00;99133.53;5075492;28;20033;-92
2023/04/24 02:19:00;;;;;;;1.07;0.97;;;;;;;11.36;100.00;99137.34;5087714;28;20108;-92
2023/04/24 02:21:28;;;;;;;1.73;1.00;;;;;;;11.12;100.00;99100.19;5068454;28;20471;-93
2023/04/24 02:23:57;;;;;;;2.72;1.23;;;;;;;11.44;100.00;99137.69;5076639;28;20119;-92
2023/04/24 02:26:28;;;;;;;2.33;1.02;;;;;;;11.11;100.00;99081.75;5082045;28;20075;-92
2023/04/24 02:29:01;;;;;;;2.88;0.95;;;;;;;11.07;100.00;99080.25;5081803;28;20040;-91
2023/04/24 02:31:28;;;;;;;1.92;1.25;;;;;;;11.41;100.00;99145.00;5078416;28;20049;-92
2023/04/24 02:34:00;;;;;;;1.67;1.17;;;;;;;10.97;100.00;99068.59;5070762;28;20041;-94
2023/04/24 02:36:27;;;;;;;2.60;1.30;;;;;;;11.00;100.00;99073.69;5066061;28;20072;-92
2023/04/24 02:39:03;;;;;;;2.65;1.35;;;;;;;11.25;100.00;99139.91;5059294;28;20045;-92
2023/04/24 02:41:33;;;;;;;3.60;1.00;;;;;;;11.04;100.00;99112.25;5011945;28;20044;-92
2023/04/24 02:44:02;;;;;;;2.15;0.98;;;;;;;10.86;100.00;99077.31;5072044;28;20051;-90
2023/04/24 02:46:31;;;;;;;2.85;1.20;;;;;;;11.24;100.00;99138.22;5079998;28;20044;-91
2023/04/24 02:49:04;;;;;;;1.67;1.25;;;;;;;11.30;100.00;99139.59;5066272;28;20041;-92
2023/04/24 02:51:33;;;;;;;3.78;1.10;;;;;;;11.28;100.00;99138.84;5043642;28;20438;-92
2023/04/24 02:54:14;;;;;;;1.27;0.77;;;;;;;11.28;100.00;99145.00;5065238;28;20048;-91
2023/04/24 02:56:45;;;;;;;2.58;0.90;;;;;;;11.26;100.00;99157.50;5080708;28;20074;-92
2023/04/24 02:59:14;;;;;;;1.65;0.82;;;;;;;11.22;100.00;99146.25;5088904;28;20111;-92
2023/04/24 03:01:50;;;;;;;2.00;0.80;;;;;;;11.18;100.00;99168.63;5089652;28;20105;-91
2023/04/24 03:04:20;;;;;;;2.15;0.80;;;;;;;10.91;100.00;99138.72;5075334;28;20044;-93
2023/04/24 03:06:52;;;;;;;2.70;1.08;;;;;;;10.91;100.00;99157.28;5092087;28;20415;-90
2023/04/24 03:09:21;;;;;;;2.20;1.08;;;;;;;10.82;100.00;99156.09;5077997;28;20049;-92
2023/04/24 03:11:49;;;;;;;3.67;1.00;;;;;;;10.50;100.00;99104.47;5079208;28;20156;-91
2023/04/24 03:14:16;;;;;;;2.88;0.85;;;;;;;10.83;100.00;99162.25;5094824;28;20041;-93
2023/04/24 03:16:43;;;;;;;2.75;0.73;;;;;;;10.11;100.00;99041.78;5100436;28;20040;-92
2023/04/24 03:19:11;;;;;;;3.72;1.08;;;;;;;10.60;100.00;99124.06;5096560;28;20040;-93
2023/04/24 03:21:40;;;;;;;1.20;0.85;;;;;;;10.26;100.00;99054.03;5102333;28;20073;-92
2023/04/24 03:24:10;;;;;;;1.58;1.05;;;;;;;10.83;100.00;99156.97;5099453;28;20036;-91
2023/04/24 03:26:44;;;;;;;3.22;0.80;;;;;;;10.62;100.00;99111.59;5101340;28;20032;-91
2023/04/24 03:29:13;;;;;;;1.13;0.77;;;;;;;10.29;100.00;99056.47;5084643;28;20040;-92
2023/04/24 03:31:42;;;;;;;1.00;0.80;;;;;;;10.64;100.00;99101.75;5118782;28;20032;-91
2023/04/24 03:34:10;;;;;;;3.33;1.05;;;;;;;10.96;100.00;99151.66;5070067;28;20043;-92
2023/04/24 03:36:37;;;;;;;1.40;0.80;;;;;;;10.85;100.00;99131.22;5095695;28;20032;-90
2023/04/24 03:39:08;;;;;;;2.90;0.85;;;;;;;10.73;100.00;99126.75;5100985;28;20024;-92
2023/04/24 03:41:38;;;;;;;1.25;0.90;;;;;;;10.96;100.00;99172.84;5060269;28;20048;-92
2023/04/24 03:44:12;;;;;;;2.20;1.05;;;;;;;10.83;100.00;99152.50;5092570;28;20048;-92
2023/04/24 03:46:53;;;;;;;2.80;1.02;;;;;;;10.96;100.00;99178.16;5108551;28;20074;-92
2023/04/24 03:49:21;;;;;;;3.00;1.10;;;;;;;10.89;100.00;99154.72;5065223;28;20046;-93
2023/04/24 03:51:48;;;;;;;0.98;0.70;;;;;;;11.13;100.00;99180.50;5077089;28;20036;-92
2023/04/24 03:54:20;;;;;;;3.05;0.85;;;;;;;11.07;100.00;99172.97;5076257;28;20356;-91
2023/04/24 03:56:53;;;;;;;1.85;1.00;;;;;;;11.10;100.00;99170.13;5093435;28;20048;-92
2023/04/24 03:59:33;;;;;;;3.45;1.00;;;;;;;11.18;100.00;99191.63;5097190;28;20122;-92
2023/04/24 04:02:02;;;;;;;2.10;0.80;;;;;;;11.27;100.00;99203.41;5089555;28;20054;-90
2023/04/24 04:04:33;;;;;;;1.15;0.80;;;;;;;11.20;100.00;99190.56;5078390;28;20538;-91
2023/04/24 04:07:03;;;;;;;2.45;0.82;;;;;;;10.97;100.00;99153.38;5096620;28;20035;-90
2023/04/24 04:09:37;;;;;;;3.00;1.13;;;;;;;11.43;100.00;99219.94;5105396;28;20112;-89
2023/04/24 04:12:05;;;;;;;1.48;0.90;;;;;;;11.22;100.00;99188.66;5082586;28;20348;-91
2023/04/24 04:14:32;;;;;;;1.95;1.23;;;;;;;11.37;100.00;99194.72;5083786;28;20048;-88
2023/04/24 04:17:01;;;;;;;2.15;1.08;;;;;;;11.24;100.00;99194.72;5079286;28;20450;-91
2023/04/24 04:19:33;;;;;;;1.10;0.80;;;;;;;11.30;100.00;99216.47;5031278;28;20041;-91
2023/04/24 04:22:08;;;;;;;1.15;0.82;;;;;;;11.08;100.00;99193.22;5077031;28;20060;-90
2023/04/24 04:24:37;;;;;;;1.55;0.98;;;;;;;10.99;100.00;99199.16;5043314;28;20048;-92
2023/04/24 04:27:06;;;;;;;2.33;1.33;;;;;;;10.99;100.00;99231.78;5073723;28;20048;-92
2023/04/24 04:30:04;;;;;;;4.30;1.50;;;;;;;10.90;100.00;99224.44;5083694;28;20063;-91
2023/04/24 04:32:35;;;;;;;1.58;1.13;;;;;;;10.68;100.00;99203.84;5082307;28;20691;-91
2023/04/24 04:35:10;;;;;;;2.00;1.40;;;;;;;10.68;100.00;99214.44;5047863;28;20053;-92
2023/04/24 04:37:38;;;;;;;2.42;1.30;;;;;;;10.77;100.00;99232.34;5063339;28;20052;-93
2023/04/24 04:40:11;;;;;;;;;;;;;;;10.81;100.00;99230.34;5077268;28;20037;-93
2023/04/24 04:42:45;;;;;;;2.10;1.33;;;;;;;10.68;100.00;99222.38;5127048;22;19995;-93
2023/04/24 04:45:30;;;;;;;2.55;1.40;;;;;;;10.36;100.00;99187.44;5101280;28;20096;-94
2023/04/24 04:48:08;;;;;;;2.30;1.15;;;;;;;10.63;100.00;99239.50;5088178;28;20036;-95
2023/04/24 04:50:50;;;;;;;3.08;1.40;;;;;;;10.59;100.00;99244.16;5279392;22;20034;-94
2023/04/24 04:53:39;;;;;;;5.20;1.90;;;;;;;10.25;100.00;99200.50;5097139;28;20103;-90
2023/04/24 04:56:11;;;;;;;2.03;1.52;;;;;;;10.57;100.00;99247.84;5074115;28;20041;-94
2023/04/24 04:58:52;;;;;;;2.88;1.60;;;;;;;10.57;100.00;99253.97;5093241;28;20044;-94
2023/04/24 05:01:25;;;;;;;1.50;1.40;;;;;;;10.27;100.00;99203.03;5081209;28;20044;-95
2023/04/24 05:03:55;;;;;;;3.10;1.65;;;;;;;10.35;100.00;99224.56;5091621;28;20040;-94
2023/04/24 05:07:18;;;;;;;3.92;1.95;;;;;;;10.57;100.00;99277.81;5071226;28;20049;-94
2023/04/24 05:10:03;;;;;;;3.45;1.85;;;;;;;10.38;100.00;99250.84;5095412;28;20067;-94
2023/04/24 05:12:31;;;;;;;2.55;1.58;;;;;;;10.30;100.00;99251.31;5096990;28;20068;-94
2023/04/24 05:15:04;;;;;;;2.60;1.88;;;;;;;10.35;100.00;99261.63;5078253;28;20045;-93
2023/04/24 05:17:39;;;;;;;5.30;2.50;;;;;;;10.23;100.00;99238.59;5065757;28;20047;-95
2023/04/24 05:20:19;;;;;;;3.42;2.10;;;;;;;10.48;100.00;99296.94;5065701;28;20047;-94
2023/04/24 05:22:59;;;;;;;2.70;1.98;;;;;;;10.27;100.00;99267.38;5080906;28;20036;-93
2023/04/24 05:25:55;;;;;;;3.47;2.17;;;;;;;10.53;100.00;99297.50;5082413;28;20041;-94
2023/04/24 05:28:22;;;;;;;4.65;3.10;;;;;;;10.05;100.00;99214.97;5095440;28;20040;-96
2023/04/24 05:30:56;;;;;;;3.03;2.20;;;;;;;9.97;100.00;99213.75;5079085;28;20058;-93
2023/04/24 05:33:25;;;;;;;5.78;2.70;;;;;;;10.43;100.00;99305.16;5078355;28;20033;-91
2023/04/24 05:35:55;;;;;;;3.45;2.50;;;;;;;10.44;100.00;99311.31;5100027;28;20036;-95
2023/04/24 05:38:24;;;;;;;2.92;2.20;;;;;;;9.94;100.00;99222.72;5102495;28;20041;-94
2023/04/24 05:40:55;;;;;;;4.15;2.35;;;;;;;10.25;100.00;99286.94;5077486;28;20048;-94
2023/04/24 05:43:25;;;;;;;6.32;2.40;;;;;;;10.41;100.00;99330.03;5086038;28;20044;-95
2023/04/24 05:45:57;;;;;;;3.22;1.98;;;;;;;10.27;97.63;99307.06;5070588;28;20052;-95
2023/04/24 05:48:43;;;;;;;2.85;2.60;;;;;;;9.87;90.83;99245.22;5062643;28;20040;-95
2023/04/24 05:51:53;;;;;;;3.47;2.50;;;;;;;10.51;85.45;99350.53;5054687;28;20047;-93
2023/04/24 05:54:21;;;;;;;3.53;2.70;;;;;;;10.67;82.27;99354.84;5046346;28;20047;-94
2023/04/24 05:56:49;;;;;;;5.75;2.80;;;;;;;10.51;79.67;99318.78;5075990;28;20067;-94
2023/04/24 05:59:23;;;;;;;3.65;2.70;;;;;;;10.48;79.87;99307.53;5061556;28;20079;-94
2023/04/24 06:01:58;;;;;;;4.03;2.78;;;;;;;10.57;79.83;99301.63;5071426;28;20051;-96
2023/04/24 06:04:49;;;;;;;3.42;2.63;;;;;;;10.52;81.67;99298.44;5060424;28;20040;-94
2023/04/24 06:07:26;;;;;;;3.50;2.63;;;;;;;10.24;83.36;99259.63;5057949;28;20045;-95
2023/04/24 06:09:53;;;;;;;4.80;2.60;;;;;;;10.92;83.85;99362.91;5069762;28;20112;-96
2023/04/24 06:12:41;;;;;;;3.05;2.47;;;;;;;10.93;83.88;99363.75;5071050;28;20048;-96
2023/04/24 06:15:32;;;;;;;4.53;2.78;;;;;;;10.97;83.72;99373.22;5072109;28;20091;-95
2023/04/24 06:18:07;;;;;;;6.22;2.70;;;;;;;11.13;84.62;99371.28;5054090;28;20092;-95
2023/04/24 06:20:36;;;;;;;5.13;2.40;;;;;;;11.19;83.06;99374.34;5054727;28;20040;-95
2023/04/24 06:23:25;;;;;;;2.95;2.40;;;;;;;10.89;82.38;99286.31;5087739;28;20043;-96
2023/04/24 06:26:15;;;;;;;3.75;2.80;;;;;;;11.02;80.64;99318.16;5074430;28;20079;-96
2023/04/24 06:29:07;;;;;;;4.68;2.50;;;;;;;11.45;83.05;99370.00;5071681;28;20048;-95
2023/04/24 06:31:49;;;;;;;3.75;3.22;;;;;;;11.51;79.20;99377.53;5074068;28;20054;-94
2023/04/24 06:34:25;;;;;;;6.15;3.00;;;;;;;11.38;79.13;99326.28;5054446;28;20067;-94
2023/04/24 06:37:24;;;;;;;3.42;3.10;;;;;;;11.76;75.63;99389.19;5053024;28;20058;-94
2023/04/24 06:40:15;;;;;;;6.80;2.83;;;;;;;11.19;78.95;99365.56;5085728;28;20048;-94
2023/04/24 06:43:13;;;;;;;4.20;3.17;;;;;;;11.07;82.18;99390.22;5097485;28;20044;-95
2023/04/24 06:46:07;;;;;;;5.13;3.08;;;;;;;10.93;84.18;99395.56;5173916;22;20053;-93
2023/04/24 06:49:06;;;;;;;5.28;3.42;;;;;;;10.81;85.84;99387.44;5499400;22;20044;-95
2023/04/24 06:51:55;;;;;;;3.50;3.20;;;;;;;11.07;85.88;99384.91;5079182;28;20041;-95
2023/04/24 06:54:29;;;;;;;;;;;;;;;11.41;82.72;99389.69;5085649;28;20045;-95
2023/04/24 06:57:04;;;;;;;3.95;3.33;;;;;;;10.80;83.30;99316.91;5092233;28;19938;-94
2023/04/24 06:59:34;;;;;;;4.68;3.25;;;;;;;11.18;83.62;99351.44;5088673;28;20047;-94
2023/04/24 07:02:15;;;;;;;4.65;3.10;;;;;;;11.82;83.66;99391.41;5058519;28;20044;-95
2023/04/24 07:05:11;;;;;;;3.97;2.80;;;;;;;11.88;77.75;99295.50;5074924;28;20086;-91
2023/04/24 07:07:47;;;;;;;3.97;3.30;;;;;;;12.76;73.61;99363.50;5062704;28;20049;-94
2023/04/24 07:10:36;;;;;;;3.42;2.88;;;;;;;12.65;73.21;99376.72;5084124;28;20099;-95
2023/04/24 07:13:17;;;;;;;4.55;3.00;;;;;;;12.32;76.80;99315.38;5214897;22;20137;-95
2023/04/24 07:16:06;;;;;;;3.45;2.83;;;;;;;11.93;77.03;99283.63;5096786;28;20105;-94
2023/04/24 07:18:55;;;;;;;3.50;3.15;;;;;;;12.26;77.60;99335.28;5097647;28;20092;-94
2023/04/24 07:24:15;;;;;;;3.13;2.88;;;;;;;12.56;77.01;99330.44;5240147;22;20059;-93
2023/04/24 07:37:38;;;;;;;4.38;3.08;;;;;;;12.78;72.19;99276.56;5033035;27;2131378;-93
2023/04/24 07:40:10;;;;;;;3.65;2.90;;;;;;;12.95;72.48;99313.38;5091130;28;20063;-96
2023/04/24 07:42:51;;;;;;;5.38;3.35;;;;;;;13.05;72.32;99366.72;5088419;28;20029;-95
2023/04/24 07:45:37;;;;;;;4.75;3.60;;;;;;;12.96;72.48;99359.41;5093568;28;20062;-95
2023/04/24 07:48:25;;;;;;;3.90;3.13;;;;;;;12.83;71.20;99363.91;5088070;28;20041;-90
2023/04/24 07:51:31;;;;;;;3.05;2.75;;;;;;;12.06;74.89;99310.13;5090008;28;20045;-95
2023/04/24 07:54:16;;;;;;;3.45;3.10;;;;;;;11.79;75.49;99283.72;5083042;28;20445;-93
2023/04/24 07:56:56;;;;;;;3.38;2.90;;;;;;;11.85;74.56;99283.28;5090484;28;20071;-93
2023/04/24 07:59:37;;;;;;;3.72;3.00;;;;;;;12.44;75.53;99394.16;5088669;28;20054;-93
2023/04/24 08:02:11;;;;;;;5.55;3.15;;;;;;;12.41;75.57;99397.06;5093242;28;20052;-94
2023/04/24 08:04:48;;;;;;;5.65;3.20;;;;;;;11.35;77.84;99292.03;5760673;23;20069;-93
2023/04/24 08:07:27;;;;;;;3.80;3.15;;;;;;;12.03;77.72;99360.75;5029805;28;20112;-96
2023/04/24 08:10:24;;;;;;;5.10;3.05;;;;;;;12.48;74.73;99383.22;4998429;28;20052;-93
2023/04/24 08:13:11;;;;;;;4.03;3.17;;;;;;;12.62;76.79;99366.31;5046592;28;20033;-96
2023/04/24 08:15:48;;;;;;;3.95;3.10;;;;;;;12.89;72.48;99324.47;5057713;28;20145;-96
2023/04/24 08:18:34;;;;;;;4.97;2.95;;;;;;;13.28;66.56;99376.53;5042531;28;20483;-94
2023/04/24 08:21:21;;;;;;;3.88;2.88;;;;;;;13.75;65.96;99371.25;5042924;28;20077;-96
2023/04/24 08:24:07;;;;;;;4.05;2.70;;;;;;;14.27;62.74;99374.25;5045011;28;20105;-96
2023/04/24 08:26:53;;;;;;;7.22;3.08;;;;;;;13.81;60.48;99294.47;5046763;28;20097;-95
2023/04/24 08:29:26;;;;;;;3.45;3.00;;;;;;;13.46;62.24;99305.16;5053734;28;20104;-95
2023/04/24 08:35:12;;;;;;;2.95;2.67;;;;;;;14.05;59.54;99393.69;5486113;22;20252;31
2023/04/24 08:41:25;;;;;;;4.50;2.58;;;;;;;13.88;60.69;99350.72;5178913;23;20053;-92
2023/04/24 08:44:16;;;;;;;5.45;2.67;;;;;;;14.45;58.13;99405.78;5042323;28;20035;-94
2023/04/24 08:46:54;;;;;;;6.10;3.10;;;;;;;14.41;57.51;99420.28;5023917;28;20033;-94
2023/04/24 08:49:34;;;;;;;5.40;3.03;;;;;;;13.89;58.46;99416.28;5097774;22;20067;-92
2023/04/24 08:52:15;;;;;;;6.55;2.83;;;;;;;12.96;62.53;99396.59;5082498;28;20064;-88
2023/04/24 08:54:53;;;;;;;4.28;2.75;;;;;;;12.94;64.43;99393.22;5061418;28;20083;-94
2023/04/24 08:57:38;;;;;;;5.82;2.88;;;;;;;12.55;66.46;99379.19;5069497;28;20032;-93
2023/04/24 09:00:32;;;;;;;4.05;3.10;;;;;;;12.29;67.38;99404.06;5075406;28;20076;-95
2023/04/24 09:03:05;;;;;;;5.45;3.13;;;;;;;11.99;70.17;99401.72;5067828;28;20037;-94
2023/04/24 09:05:54;;;;;;;;;;;;;;;12.22;72.27;99447.91;5070795;28;20097;-95
2023/04/24 09:08:27;;;;;;;6.68;2.95;;;;;;;12.17;72.98;99461.50;5112056;23;19919;-94
2023/04/24 09:11:17;;;;;;;3.30;3.00;;;;;;;12.00;73.58;99419.34;5103975;23;20052;-95
2023/04/24 09:14:36;;;;;;;3.13;2.60;;;;;;;12.17;75.12;99413.72;5294298;23;20036;-89
2023/04/24 09:18:09;;;;;;;3.78;2.53;;;;;;;12.64;71.74;99465.31;5290988;22;20042;-93
2023/04/24 09:21:31;;;;;;;3.22;2.50;;;;;;;12.09;73.64;99429.34;5545001;22;20117;-88
2023/04/24 09:27:12;;;;;;;4.13;2.33;;;;;;;12.29;75.02;99479.22;5221739;23;20074;-94
2023/04/24 09:33:17;;;;;;;3.05;2.40;;;;;;;12.10;75.88;99478.81;5908589;23;20060;31
2023/04/24 09:39:35;;;;;;;3.13;2.83;;;;;;;11.61;79.63;99489.16;5753473;22;20057;31
2023/04/24 09:48:33;;;;;;;3.97;2.63;;;;;;;11.75;78.24;99437.84;5497322;23;21138;-92
2023/04/24 10:08:59;;;;;;;2.45;2.15;;;;;;;11.89;77.76;99443.09;4965959;28;20478;-96
2023/04/24 10:11:44;;;;;;;4.50;2.15;;;;;;;12.16;78.17;99504.91;4951802;28;20048;-96
2023/04/24 10:14:32;;;;;;;3.70;2.22;;;;;;;12.18;80.29;99508.31;4980372;28;20061;-95
2023/04/24 10:20:08;;;;;;;2.53;2.20;;;;;;;12.15;83.41;99512.97;5081954;23;20049;-93
2023/04/24 10:22:51;;;;;;;;;;;;;;;11.98;84.89;99515.91;5011488;28;20050;-94
2023/04/24 10:25:30;;;;;;;2.45;2.25;;;;;;;11.74;91.86;99476.78;4994492;28;19945;-93
2023/04/24 10:28:14;;;;;;;4.97;2.47;;;;;;;11.57;94.47;99482.34;5019205;28;20041;-94
2023/04/24 10:30:55;;;;;;;3.80;2.30;;;;;;;11.68;100.00;99532.84;5029095;28;20352;-94
2023/04/24 10:33:35;;;;;;;3.33;2.10;;;;;;;11.40;100.00;99512.59;5018007;28;20068;-92
2023/04/24 10:36:05;;;;;;;6.05;3.00;;;;;;;10.96;100.00;99526.00;5036422;28;20353;-94
2023/04/24 10:38:50;;;;;;;5.15;3.20;;;;;;;10.50;100.00;99501.50;5017755;28;20072;-92
2023/04/24 10:41:22;;;;;;;4.83;3.63;;;;;;;10.67;100.00;99564.88;5017629;28;20049;-92
2023/04/24 10:44:14;;;;;;;3.97;3.33;;;;;;;10.24;100.00;99516.28;5032843;28;20487;-92
2023/04/24 10:46:59;;;;;;;5.85;3.97;;;;;;;10.40;100.00;99555.91;5004449;28;20054;-92
2023/04/24 10:49:45;;;;;;;4.55;3.83;;;;;;;10.12;100.00;99531.06;5029551;28;20037;-94
2023/04/24 10:52:16;;;;;;;4.65;3.70;;;;;;;10.43;100.00;99572.47;5015316;28;20053;-92
2023/04/24 10:54:47;;;;;;;3.88;3.20;;;;;;;10.55;100.00;99581.47;5018169;28;20045;-92
2023/04/24 10:57:35;;;;;;;6.93;3.35;;;;;;;10.62;100.00;99590.78;5004649;28;20034;-93
2023/04/24 11:00:22;;;;;;;3.53;2.83;;;;;;;10.25;100.00;99490.69;5016574;28;20089;-93
2023/04/24 11:02:52;;;;;;;4.25;3.28;;;;;;;10.75;100.00;99530.81;5011838;28;20117;-92
2023/04/24 11:06:05;;;;;;;3.53;2.95;;;;;;;10.70;100.00;99471.16;5030387;28;20050;-93
2023/04/24 11:09:05;;;;;;;4.03;2.10;;;;;;;11.29;100.00;99531.00;5031280;28;20042;-94
2023/04/24 11:15:24;;;;;;;3.67;1.80;;;;;;;11.98;100.00;99575.13;5668224;23;20045;-94
2023/04/24 11:24:26;;;;;;;2.38;1.52;;;;;;;12.04;100.00;99504.88;5217122;23;20118;-92
2023/04/24 11:38:41;;;;;;;3.15;1.85;;;;;;;12.41;94.03;99468.75;5021486;28;20090;-94
2023/04/24 11:41:31;;;;;;;2.50;1.73;;;;;;;13.06;93.64;99527.03;5017729;28;20046;-95
2023/04/24 11:48:20;;;;;;;2.30;1.50;;;;;;;13.81;80.48;99567.72;5045746;28;20048;-93
2023/04/24 11:51:03;;;;;;;5.13;2.03;;;;;;;13.32;80.45;99523.38;5030083;28;20053;-93
2023/04/24 11:53:58;;;;;;;3.30;1.75;;;;;;;13.38;79.61;99588.59;5009823;28;20043;-95
2023/04/24 11:56:40;;;;;;;;;;;;;;;13.38;77.82;99576.13;5018059;28;20102;-96
2023/04/24 11:59:19;;;;;;;2.15;1.77;;;;;;;13.30;78.52;99525.31;5029115;28;19941;-94
2023/04/24 12:02:27;;;;;;;1.67;1.58;;;;;;;13.19;74.71;99520.78;5013260;28;20101;-93
2023/04/24 12:05:36;;;;;;;3.05;2.00;;;;;;;13.05;82.46;99586.47;5010080;28;20037;-94
2023/04/24 12:08:32;;;;;;;6.65;2.55;;;;;;;12.50;99.00;99545.94;5028070;28;20073;-94
2023/04/24 12:11:31;;;;;;;4.22;2.45;;;;;;;11.83;100.00;99501.84;5003360;28;20047;-94
2023/04/24 12:14:11;;;;;;;2.15;1.95;;;;;;;11.81;100.00;99544.41;5029225;28;20054;-95
2023/04/24 12:16:59;;;;;;;5.00;2.13;;;;;;;11.49;100.00;99541.16;5036859;28;20041;-95
2023/04/24 12:19:50;;;;;;;3.10;1.60;;;;;;;10.99;100.00;99599.16;5014999;28;20025;-92
2023/04/24 12:22:25;;;;;;;5.57;2.30;;;;;;;10.23;100.00;99635.47;5037260;28;20062;-93
2023/04/24 12:25:05;;;;;;;4.93;2.15;;;;;;;9.48;100.00;99586.75;5023346;28;20029;-93
2023/04/24 12:28:04;;;;;;;3.72;1.95;;;;;;;9.75;100.00;99637.28;5017282;28;20054;-93
2023/04/24 12:30:53;;;;;;;4.05;2.55;;;;;;;9.68;100.00;99615.59;5017928;28;20030;-95
2023/04/24 12:33:27;;;;;;;5.10;2.72;;;;;;;9.83;100.00;99592.72;5003198;28;20054;-94
2023/04/24 12:35:57;;;;;;;3.70;2.28;;;;;;;10.14;100.00;99620.94;5011112;28;20042;-91
2023/04/24 12:38:46;;;;;;;3.45;3.05;;;;;;;10.39;100.00;99618.59;5035106;28;20072;-93
2023/04/24 12:41:22;;;;;;;4.07;2.38;;;;;;;10.09;100.00;99548.91;5048547;28;20037;-95
2023/04/24 12:43:55;;;;;;;3.53;2.42;;;;;;;10.11;100.00;99542.59;5010584;28;20053;-93
2023/04/24 12:46:28;;;;;;;5.35;3.08;;;;;;;10.49;100.00;99553.59;5032010;28;20050;-95
2023/04/24 12:49:23;;;;;;;5.30;3.30;;;;;;;10.85;100.00;99554.97;5013935;28;20050;-95
2023/04/24 12:51:59;;;;;;;5.47;3.30;;;;;;;11.23;100.00;99542.81;5006743;28;20070;-92
2023/04/24 12:57:22;;;;;;;6.07;3.65;;;;;;;11.04;100.00;99544.06;5142827;23;20048;-96
2023/04/24 13:00:33;;;;;;;5.10;4.03;;;;;;;10.70;100.00;99502.94;5047657;28;20068;-95
2023/04/24 13:06:06;;;;;;;6.28;3.95;;;;;;;11.70;100.00;99614.97;5506225;23;20044;-96
2023/04/24 13:09:47;;;;;;;5.85;4.40;;;;;;;11.67;100.00;99602.75;5024756;28;20060;-95
2023/04/24 13:12:29;;;;;;;5.32;4.20;;;;;;;11.82;100.00;99580.59;5011377;28;20037;-95
2023/04/24 13:15:10;;;;;;;6.05;3.65;;;;;;;11.29;100.00;99500.97;5020766;28;20061;-93
2023/04/24 13:17:56;;;;;;;7.00;4.32;;;;;;;11.86;100.00;99605.13;5019231;28;20046;-91
2023/04/24 13:23:38;;;;;;;6.35;4.43;;;;;;;12.18;100.00;99614.47;5261865;23;20042;-93
2023/04/24 13:26:25;;;;;;;7.13;4.00;;;;;;;12.24;100.00;99610.59;5104081;23;20045;-93
2023/04/24 13:29:11;;;;;;;4.97;3.88;;;;;;;12.12;100.00;99551.19;5017235;28;20050;-91
2023/04/24 13:32:18;;;;;;;4.72;3.60;;;;;;;11.89;100.00;99517.38;5014102;28;20151;-93
2023/04/24 13:35:13;;;;;;;5.43;3.47;;;;;;;11.85;87.40;99563.63;5036339;28;20053;-94
2023/04/24 13:38:21;;;;;;;4.00;2.70;;;;;;;11.43;89.79;99577.81;5000937;28;20038;-92
2023/04/24 13:41:03;;;;;;;3.50;2.80;;;;;;;11.23;93.24;99602.91;5034131;28;20084;-94
2023/04/24 13:43:51;;;;;;;3.95;2.60;;;;;;;10.98;88.26;99582.41;5348131;23;20484;-95
2023/04/24 13:46:41;;;;;;;3.88;2.92;;;;;;;11.32;91.23;99644.78;5018719;28;20113;-95
2023/04/24 13:49:26;;;;;;;6.40;3.33;;;;;;;11.31;93.52;99645.72;5013411;28;20097;-93
2023/04/24 13:52:02;;;;;;;4.20;3.55;;;;;;;11.08;95.56;99590.63;5005203;28;20072;-96
2023/04/24 13:55:10;;;;;;;4.38;3.28;;;;;;;11.07;90.89;99583.63;5055032;23;20076;-93